Time,TemperatureF,DewpointF,PressureIn,WindDirection,WindDirectionDegrees,WindSpeedMPH,WindSpeedGustMPH,Humidity,HourlyPrecipIn,Conditions,Clouds,dailyrainin,SoftwareType,DateUTC
2013-04-26 00:03:00,34.0,29.0,30.44,ENE,58,0.0,0.0,81,0.00,,,0.00,,2013-04-26 04:03:00,
2013-04-26 00:12:00,34.0,29.0,30.44,ENE,58,0.0,0.0,81,0.00,,,0.00,,2013-04-26 04:12:00,
2013-04-26 00:23:00,34.0,29.0,30.45,ENE,58,0.0,0.0,82,0.00,,,0.00,,2013-04-26 04:23:00,
2013-04-26 00:32:00,33.0,28.0,30.45,ENE,58,0.0,0.0,82,0.00,,,0.00,,2013-04-26 04:32:00,
2013-04-26 00:43:00,33.0,28.0,30.45,ENE,58,0.0,0.0,82,0.00,,,0.00,,2013-04-26 04:43:00,
2013-04-26 00:52:00,33.0,28.0,30.45,ENE,58,0.0,0.0,83,0.00,,,0.00,,2013-04-26 04:52:00,
2013-04-26 01:02:00,33.0,28.0,30.45,ENE,58,0.0,0.0,83,0.00,,,0.00,,2013-04-26 05:02:00,
2013-04-26 01:13:00,33.0,28.0,30.45,ENE,58,0.0,0.0,83,0.00,,,0.00,,2013-04-26 05:13:00,
2013-04-26 01:22:00,32.0,28.0,30.45,ENE,58,0.0,0.0,84,0.00,,,0.00,,2013-04-26 05:22:00,
2013-04-26 01:32:00,32.0,28.0,30.45,ENE,58,0.0,0.0,84,0.00,,,0.00,,2013-04-26 05:32:00,
2013-04-26 01:42:00,32.0,28.0,30.45,ENE,58,0.0,0.0,84,0.00,,,0.00,,2013-04-26 05:42:00,
2013-04-26 01:52:00,32.0,28.0,30.45,ENE,58,0.0,0.0,84,0.00,,,0.00,,2013-04-26 05:52:00,
2013-04-26 02:02:00,31.0,27.0,30.45,NE,56,0.0,0.0,84,0.00,,,0.00,,2013-04-26 06:02:00,
2013-04-26 02:11:00,31.0,27.0,30.45,NE,56,0.0,0.0,84,0.00,,,0.00,,2013-04-26 06:11:00,
2013-04-26 02:22:00,31.0,27.0,30.45,ENE,57,0.0,0.0,84,0.00,,,0.00,,2013-04-26 06:22:00,
2013-04-26 02:32:00,31.0,27.0,30.45,ENE,57,0.0,0.0,84,0.00,,,0.00,,2013-04-26 06:32:00,
2013-04-26 02:42:00,31.0,27.0,30.45,ENE,57,0.0,0.0,84,0.00,,,0.00,,2013-04-26 06:42:00,
2013-04-26 02:52:00,30.0,26.0,30.45,NE,56,0.0,0.0,85,0.00,,,0.00,,2013-04-26 06:52:00,
2013-04-26 03:02:00,31.0,27.0,30.45,NE,56,0.0,0.0,85,0.00,,,0.00,,2013-04-26 07:02:00,
2013-04-26 03:11:00,31.0,27.0,30.45,NE,56,0.0,0.0,85,0.00,,,0.00,,2013-04-26 07:11:00,
2013-04-26 03:22:00,30.0,26.0,30.45,NE,56,0.0,0.0,85,0.00,,,0.00,,2013-04-26 07:22:00,
2013-04-26 03:32:00,30.0,26.0,30.45,ENE,57,0.0,0.0,86,0.00,,,0.00,,2013-04-26 07:32:00,
2013-04-26 03:42:00,30.0,26.0,30.45,ENE,57,0.0,0.0,86,0.00,,,0.00,,2013-04-26 07:42:00,
2013-04-26 03:52:00,30.0,26.0,30.45,ENE,58,0.0,0.0,86,0.00,,,0.00,,2013-04-26 07:52:00,
2013-04-26 04:03:00,29.0,26.0,30.46,ENE,58,0.0,0.0,87,0.00,,,0.00,,2013-04-26 08:03:00,
2013-04-26 04:11:00,29.0,26.0,30.46,ENE,58,0.0,0.0,87,0.00,,,0.00,,2013-04-26 08:11:00,
2013-04-26 04:22:00,29.0,26.0,30.47,ENE,58,0.0,0.0,87,0.00,,,0.00,,2013-04-26 08:22:00,
2013-04-26 04:32:00,29.0,26.0,30.47,ENE,58,0.0,0.0,87,0.00,,,0.00,,2013-04-26 08:32:00,
2013-04-26 04:42:00,29.0,26.0,30.47,ENE,58,0.0,0.0,87,0.00,,,0.00,,2013-04-26 08:42:00,
2013-04-26 04:52:00,29.0,26.0,30.48,ENE,58,0.0,0.0,87,0.00,,,0.00,,2013-04-26 08:52:00,
2013-04-26 05:02:00,29.0,26.0,30.49,ENE,58,0.0,0.0,88,0.00,,,0.00,,2013-04-26 09:02:00,
2013-04-26 05:11:00,29.0,26.0,30.49,ENE,58,0.0,0.0,88,0.00,,,0.00,,2013-04-26 09:11:00,
2013-04-26 05:22:00,28.0,25.0,30.50,ENE,58,0.0,0.0,88,0.00,,,0.00,,2013-04-26 09:22:00,
2013-04-26 05:33:00,28.0,25.0,30.50,ENE,57,0.0,0.0,89,0.00,,,0.00,,2013-04-26 09:33:00,
2013-04-26 05:43:00,28.0,25.0,30.50,ENE,57,0.0,0.0,89,0.00,,,0.00,,2013-04-26 09:43:00,
2013-04-26 05:53:00,29.0,26.0,30.50,ENE,57,0.0,0.0,89,0.00,,,0.00,,2013-04-26 09:53:00,
2013-04-26 06:03:00,29.0,26.0,30.50,West,269,0.0,2.0,89,0.00,,,0.00,,2013-04-26 10:03:00,
2013-04-26 06:12:00,29.0,26.0,30.50,West,269,0.0,2.0,89,0.00,,,0.00,,2013-04-26 10:12:00,
2013-04-26 06:23:00,29.0,26.0,30.51,ENE,70,0.0,1.0,89,0.00,,,0.00,,2013-04-26 10:23:00,
2013-04-26 06:33:00,28.0,25.0,30.52,ENE,71,0.0,0.0,89,0.00,,,0.00,,2013-04-26 10:33:00,
2013-04-26 06:42:00,28.0,25.0,30.52,ENE,71,0.0,0.0,89,0.00,,,0.00,,2013-04-26 10:42:00,
2013-04-26 06:52:00,29.0,26.0,30.52,East,93,0.0,2.0,90,0.00,,,0.00,,2013-04-26 10:52:00,
2013-04-26 07:02:00,34.0,28.0,30.52,NE,46,1.0,3.0,78,0.00,,,0.00,,2013-04-26 11:02:00,
2013-04-26 07:11:00,34.0,28.0,30.52,NE,46,1.0,3.0,78,0.00,,,0.00,,2013-04-26 11:11:00,
2013-04-26 07:22:00,40.0,27.0,30.52,NE,44,1.0,4.0,59,0.00,,,0.00,,2013-04-26 11:22:00,
2013-04-26 07:32:00,43.0,28.0,30.53,ENE,77,1.0,3.0,54,0.00,,,0.00,,2013-04-26 11:32:00,
2013-04-26 07:42:00,43.0,28.0,30.53,ENE,77,1.0,3.0,54,0.00,,,0.00,,2013-04-26 11:42:00,
2013-04-26 07:52:00,44.0,28.0,30.53,ENE,60,1.0,4.0,53,0.00,,,0.00,,2013-04-26 11:52:00,
2013-04-26 08:01:00,46.0,28.0,30.53,East,81,2.0,6.0,49,0.00,,,0.00,,2013-04-26 12:01:00,
2013-04-26 08:11:00,46.0,28.0,30.53,East,81,2.0,6.0,49,0.00,,,0.00,,2013-04-26 12:11:00,
2013-04-26 08:22:00,46.0,27.0,30.53,NE,56,3.0,6.0,47,0.00,,,0.00,,2013-04-26 12:22:00,
2013-04-26 08:32:00,48.0,28.0,30.53,East,87,2.0,4.0,45,0.00,,,0.00,,2013-04-26 12:32:00,
2013-04-26 08:42:00,48.0,28.0,30.53,East,87,2.0,4.0,45,0.00,,,0.00,,2013-04-26 12:42:00,
2013-04-26 08:52:00,48.0,28.0,30.54,ENE,78,3.0,7.0,45,0.00,,,0.00,,2013-04-26 12:52:00,
2013-04-26 09:01:00,50.0,28.0,30.54,NE,43,2.0,5.0,43,0.00,,,0.00,,2013-04-26 13:01:00,
2013-04-26 09:11:00,50.0,28.0,30.54,NE,43,2.0,5.0,43,0.00,,,0.00,,2013-04-26 13:11:00,
2013-04-26 09:22:00,51.0,28.0,30.55,NE,53,2.0,4.0,41,0.00,,,0.00,,2013-04-26 13:22:00,
2013-04-26 09:32:00,51.0,28.0,30.55,South,177,1.0,4.0,41,0.00,,,0.00,,2013-04-26 13:32:00,
2013-04-26 09:42:00,51.0,28.0,30.55,South,177,1.0,4.0,41,0.00,,,0.00,,2013-04-26 13:42:00,
2013-04-26 09:52:00,52.0,28.0,30.55,East,80,2.0,4.0,40,0.00,,,0.00,,2013-04-26 13:52:00,
2013-04-26 10:01:00,53.0,28.0,30.55,NE,41,2.0,6.0,38,0.00,,,0.00,,2013-04-26 14:01:00,
2013-04-26 10:11:00,53.0,28.0,30.55,NE,41,2.0,6.0,38,0.00,,,0.00,,2013-04-26 14:11:00,
2013-04-26 10:21:00,54.0,29.0,30.55,ENE,74,1.0,3.0,38,0.00,,,0.00,,2013-04-26 14:21:00,
2013-04-26 10:32:00,55.0,29.0,30.55,WSW,239,2.0,5.0,37,0.00,,,0.00,,2013-04-26 14:32:00,
2013-04-26 10:42:00,55.0,29.0,30.55,WSW,239,2.0,5.0,37,0.00,,,0.00,,2013-04-26 14:42:00,
2013-04-26 10:52:00,55.0,29.0,30.55,SSE,147,1.0,5.0,36,0.00,,,0.00,,2013-04-26 14:52:00,
2013-04-26 11:01:00,57.0,30.0,30.55,SW,226,1.0,5.0,35,0.00,,,0.00,,2013-04-26 15:01:00,
2013-04-26 11:12:00,57.0,30.0,30.55,SW,226,1.0,5.0,35,0.00,,,0.00,,2013-04-26 15:12:00,
2013-04-26 11:22:00,57.0,28.0,30.55,NE,53,1.0,3.0,33,0.00,,,0.00,,2013-04-26 15:22:00,
2013-04-26 11:33:00,57.0,29.0,30.55,East,80,1.0,8.0,34,0.00,,,0.00,,2013-04-26 15:33:00,
2013-04-26 11:43:00,57.0,29.0,30.55,East,80,1.0,8.0,34,0.00,,,0.00,,2013-04-26 15:43:00,
2013-04-26 11:53:00,58.0,31.0,30.54,East,91,0.0,3.0,35,0.00,,,0.00,,2013-04-26 15:53:00,
2013-04-26 12:03:00,59.0,29.0,30.53,North,6,2.0,6.0,32,0.00,,,0.00,,2013-04-26 16:03:00,
2013-04-26 12:13:00,59.0,29.0,30.53,North,6,2.0,6.0,32,0.00,,,0.00,,2013-04-26 16:13:00,
2013-04-26 12:23:00,59.0,30.0,30.53,WSW,238,2.0,6.0,33,0.00,,,0.00,,2013-04-26 16:23:00,
2013-04-26 12:33:00,60.0,29.0,30.53,WSW,257,1.0,3.0,31,0.00,,,0.00,,2013-04-26 16:33:00,
2013-04-26 12:42:00,60.0,29.0,30.53,WSW,257,1.0,3.0,31,0.00,,,0.00,,2013-04-26 16:42:00,
2013-04-26 12:53:00,59.0,28.0,30.52,West,279,1.0,4.0,31,0.00,,,0.00,,2013-04-26 16:53:00,
2013-04-26 13:02:00,57.0,29.0,30.51,West,264,1.0,3.0,34,0.00,,,0.00,,2013-04-26 17:02:00,
2013-04-26 13:12:00,57.0,29.0,30.51,West,264,1.0,3.0,34,0.00,,,0.00,,2013-04-26 17:12:00,
2013-04-26 13:22:00,58.0,29.0,30.51,WSW,249,2.0,3.0,33,0.00,,,0.00,,2013-04-26 17:22:00,
2013-04-26 13:32:00,58.0,29.0,30.50,NW,323,1.0,5.0,33,0.00,,,0.00,,2013-04-26 17:32:00,
2013-04-26 13:42:00,58.0,29.0,30.50,NW,323,1.0,5.0,33,0.00,,,0.00,,2013-04-26 17:42:00,
2013-04-26 13:52:00,58.0,29.0,30.50,South,169,1.0,3.0,33,0.00,,,0.00,,2013-04-26 17:52:00,
2013-04-26 14:02:00,58.0,30.0,30.50,WNW,285,1.0,3.0,34,0.00,,,0.00,,2013-04-26 18:02:00,
2013-04-26 14:12:00,58.0,30.0,30.50,WNW,285,1.0,3.0,34,0.00,,,0.00,,2013-04-26 18:12:00,
2013-04-26 14:22:00,59.0,31.0,30.50,SSE,148,1.0,3.0,34,0.00,,,0.00,,2013-04-26 18:22:00,
2013-04-26 14:33:00,59.0,30.0,30.50,ENE,76,2.0,3.0,33,0.00,,,0.00,,2013-04-26 18:33:00,
2013-04-26 14:42:00,59.0,30.0,30.50,ENE,76,2.0,3.0,33,0.00,,,0.00,,2013-04-26 18:42:00,
2013-04-26 14:52:00,59.0,31.0,30.49,SE,131,0.0,3.0,34,0.00,,,0.00,,2013-04-26 18:52:00,
2013-04-26 15:01:00,59.0,28.0,30.49,WSW,239,3.0,5.0,31,0.00,,,0.00,,2013-04-26 19:01:00,
2013-04-26 15:12:00,59.0,28.0,30.49,WSW,239,3.0,5.0,31,0.00,,,0.00,,2013-04-26 19:12:00,
2013-04-26 15:22:00,60.0,29.0,30.49,West,260,2.0,5.0,31,0.00,,,0.00,,2013-04-26 19:22:00,
2013-04-26 15:32:00,59.0,29.0,30.49,WSW,246,2.0,6.0,32,0.00,,,0.00,,2013-04-26 19:32:00,
2013-04-26 15:42:00,59.0,29.0,30.49,WSW,246,2.0,6.0,32,0.00,,,0.00,,2013-04-26 19:42:00,
2013-04-26 15:52:00,59.0,29.0,30.49,ENE,69,0.0,3.0,32,0.00,,,0.00,,2013-04-26 19:52:00,
2013-04-26 16:02:00,60.0,28.0,30.49,WNW,283,2.0,3.0,30,0.00,,,0.00,,2013-04-26 20:02:00,
2013-04-26 16:11:00,60.0,28.0,30.49,WNW,283,2.0,3.0,30,0.00,,,0.00,,2013-04-26 20:11:00,
2013-04-26 16:22:00,60.0,29.0,30.48,West,276,0.0,2.0,31,0.00,,,0.00,,2013-04-26 20:22:00,
2013-04-26 16:32:00,60.0,29.0,30.48,East,87,1.0,3.0,31,0.00,,,0.00,,2013-04-26 20:32:00,
2013-04-26 16:42:00,60.0,29.0,30.48,East,87,1.0,3.0,31,0.00,,,0.00,,2013-04-26 20:42:00,
2013-04-26 16:52:00,59.0,31.0,30.49,East,86,1.0,3.0,35,0.00,,,0.00,,2013-04-26 20:52:00,
2013-04-26 17:02:00,58.0,32.0,30.49,SE,132,2.0,3.0,37,0.00,,,0.00,,2013-04-26 21:02:00,
2013-04-26 17:11:00,58.0,32.0,30.49,SE,132,2.0,3.0,37,0.00,,,0.00,,2013-04-26 21:11:00,
2013-04-26 17:22:00,57.0,32.0,30.49,NE,51,2.0,9.0,39,0.00,,,0.00,,2013-04-26 21:22:00,
2013-04-26 17:33:00,56.0,33.0,30.50,ESE,121,2.0,6.0,41,0.00,,,0.00,,2013-04-26 21:33:00,
2013-04-26 17:42:00,56.0,33.0,30.50,ESE,121,2.0,6.0,41,0.00,,,0.00,,2013-04-26 21:42:00,
2013-04-26 17:53:00,56.0,33.0,30.50,East,98,1.0,3.0,42,0.00,,,0.00,,2013-04-26 21:53:00,
2013-04-26 18:03:00,55.0,33.0,30.51,East,85,1.0,3.0,43,0.00,,,0.00,,2013-04-26 22:03:00,
2013-04-26 18:13:00,55.0,33.0,30.51,East,85,1.0,3.0,43,0.00,,,0.00,,2013-04-26 22:13:00,
2013-04-26 18:23:00,55.0,33.0,30.52,SE,131,1.0,3.0,44,0.00,,,0.00,,2013-04-26 22:23:00,
2013-04-26 18:33:00,54.0,34.0,30.52,ENE,67,1.0,3.0,47,0.00,,,0.00,,2013-04-26 22:33:00,
2013-04-26 18:42:00,54.0,34.0,30.52,ENE,67,1.0,3.0,47,0.00,,,0.00,,2013-04-26 22:42:00,
2013-04-26 18:52:00,54.0,35.0,30.53,NE,44,2.0,3.0,48,0.00,,,0.00,,2013-04-26 22:52:00,
2013-04-26 19:02:00,53.0,34.0,30.53,ENE,65,1.0,3.0,49,0.00,,,0.00,,2013-04-26 23:02:00,
2013-04-26 19:12:00,53.0,34.0,30.53,ENE,65,1.0,3.0,49,0.00,,,0.00,,2013-04-26 23:12:00,
2013-04-26 19:21:00,53.0,35.0,30.53,ENE,59,1.0,4.0,51,0.00,,,0.00,,2013-04-26 23:21:00,
2013-04-26 19:32:00,53.0,35.0,30.54,NE,46,1.0,3.0,51,0.00,,,0.00,,2013-04-26 23:32:00,
2013-04-26 19:42:00,53.0,35.0,30.54,NE,46,1.0,3.0,51,0.00,,,0.00,,2013-04-26 23:42:00,
2013-04-26 19:52:00,52.0,35.0,30.54,East,86,1.0,2.0,52,0.00,,,0.00,,2013-04-26 23:52:00,
2013-04-26 20:01:00,52.0,35.0,30.54,ENE,68,2.0,3.0,53,0.00,,,0.00,,2013-04-27 00:01:00,
2013-04-26 20:11:00,52.0,35.0,30.54,ENE,68,2.0,3.0,53,0.00,,,0.00,,2013-04-27 00:11:00,
2013-04-26 20:21:00,52.0,36.0,30.55,NE,55,2.0,3.0,54,0.00,,,0.00,,2013-04-27 00:21:00,
2013-04-26 20:32:00,52.0,36.0,30.55,ENE,72,1.0,4.0,55,0.00,,,0.00,,2013-04-27 00:32:00,
2013-04-26 20:42:00,52.0,36.0,30.55,ENE,72,1.0,4.0,55,0.00,,,0.00,,2013-04-27 00:42:00,
2013-04-26 20:52:00,51.0,36.0,30.55,East,80,0.0,1.0,56,0.00,,,0.00,,2013-04-27 00:52:00,
2013-04-26 21:01:00,51.0,37.0,30.56,East,80,0.0,1.0,58,0.00,,,0.00,,2013-04-27 01:01:00,
2013-04-26 21:12:00,51.0,37.0,30.56,East,80,0.0,1.0,58,0.00,,,0.00,,2013-04-27 01:12:00,
2013-04-26 21:21:00,50.0,37.0,30.56,ENE,76,1.0,2.0,60,0.00,,,0.00,,2013-04-27 01:21:00,
2013-04-26 21:32:00,50.0,36.0,30.56,ENE,65,1.0,2.0,59,0.00,,,0.00,,2013-04-27 01:32:00,
2013-04-26 21:42:00,50.0,36.0,30.56,ENE,65,1.0,2.0,59,0.00,,,0.00,,2013-04-27 01:42:00,
2013-04-26 21:52:00,50.0,37.0,30.56,ENE,68,1.0,2.0,60,0.00,,,0.00,,2013-04-27 01:52:00,
2013-04-26 22:02:00,49.0,36.0,30.56,ENE,68,1.0,3.0,60,0.00,,,0.00,,2013-04-27 02:02:00,
2013-04-26 22:11:00,49.0,36.0,30.56,ENE,68,1.0,3.0,60,0.00,,,0.00,,2013-04-27 02:11:00,
2013-04-26 22:22:00,49.0,36.0,30.56,ENE,72,1.0,2.0,61,0.00,,,0.00,,2013-04-27 02:22:00,
2013-04-26 22:32:00,47.0,36.0,30.56,SE,139,0.0,1.0,65,0.00,,,0.00,,2013-04-27 02:32:00,
2013-04-26 22:42:00,47.0,36.0,30.56,SE,139,0.0,1.0,65,0.00,,,0.00,,2013-04-27 02:42:00,
2013-04-26 22:52:00,46.0,36.0,30.57,SW,232,0.0,1.0,67,0.00,,,0.00,,2013-04-27 02:52:00,
2013-04-26 23:02:00,45.0,36.0,30.57,South,171,0.0,1.0,70,0.00,,,0.00,,2013-04-27 03:02:00,
2013-04-26 23:11:00,45.0,36.0,30.57,South,171,0.0,1.0,70,0.00,,,0.00,,2013-04-27 03:11:00,
2013-04-26 23:22:00,43.0,35.0,30.57,SE,144,0.0,1.0,74,0.00,,,0.00,,2013-04-27 03:22:00,
2013-04-26 23:33:00,43.0,36.0,30.57,SE,142,0.0,1.0,76,0.00,,,0.00,,2013-04-27 03:33:00,
2013-04-26 23:43:00,43.0,36.0,30.57,SE,142,0.0,1.0,76,0.00,,,0.00,,2013-04-27 03:43:00,
2013-04-26 23:53:00,41.0,34.0,30.58,SE,144,0.0,0.0,77,0.00,,,0.00,,2013-04-27 03:53:00,